Historyczne dane pomiarowe

Dodano dane terminowe – wersja testowa.

Dane z okresu 1951-2019

Wersja bazy: 1.34 [2019-03-16, lista zmian], aktualizacja planowana na 2019-04-15

Dane meteo z obszaru Polski uzyskane na podstawie danych udostępnionych przez Instytut Meteorologii i Gospodarki Wodnej – Państwowy Instytut Badawczy.

 

Wybierz Datę:    

       

TemperaturaWilgotnośćWiatrCiśnienieOpadyŚniegCzas trwania zjawisk
 Stacja t tx tn tng RH VA  wxwx mslp ppp RRR   cm mm wxwxwxwxwxwxwx
1987-08-14 15.3 21.4 9.5 4.6 69.0- 5.0 1.7---- 0.0------------
1987-08-13 13.6 18.9 8.5 5.6 72.3- 4.7 2.3---- 0.0------------
1987-08-12 13.3 18.0 8.9 5.6 76.0- 3.0 2.3---- 0.0------------
1987-08-11 13.9 17.6 12.4 9.8 82.8- 6.0 2.7---- 0.8------------
1987-08-10 15.6 21.4 14.2 5.0 87.8- 4.7 2.3---- 4.1------------
1987-08-09 18.9 23.7 12.9 5.9 55.8- 4.7 1.7---- 0.0------------
1987-08-08 15.6 20.3 9.8 6.9 68.3- 1.3 1.3---- 0.0------------
1987-08-07 11.8 15.2 9.4 5.1 79.0- 5.0 1.0---- 1.5------------
1987-08-06 11.6 15.0 9.9 6.6 86.3- 5.0 1.0---- 0.7------------
1987-08-05 14.2 19.9 11.4 8.6 85.5- 6.3 1.3---- 0.2------------
1987-08-04 16.3 20.0 14.2 10.1 84.8- 6.3 1.3---- 0.2------------
1987-08-03 16.0 19.7 12.4 7.8 80.5- 3.3 1.3---- 0.0------------
1987-08-02 15.4 19.2 12.8 8.1 79.3- 5.0 2.0---- 6.2------------
1987-08-01 16.0 22.4 10.9 8.1 78.3- 3.7 0.0---- 1.7------------
1987-07-31 16.3 22.0 13.4 12.7 90.3- 8.0 2.7---- 3.3------------
1987-07-30 19.1 24.5 13.9 10.9 68.8- 0.0 0.0---- 1.4------------
1987-07-29 15.3 20.0 11.9 9.1 69.3- 5.0 2.0---- 0.0------------
1987-07-28 13.8 16.5 12.4 11.2 84.0- 7.3 1.7---- 4.6------------
1987-07-27 13.5 18.0 9.2 6.6 69.3- 5.3 4.0---- 0.9------------
1987-07-26 13.4 19.0 10.4 11.0 95.0- 7.7 1.7---- 14.3------------
1987-07-25 19.7 25.4 15.8 12.6 80.5- 3.0 0.7---- 0.5------------
1987-07-24 20.5 26.7 17.5 14.9 86.5- 2.7 0.7---- 0.3------------
1987-07-23 20.4 27.0 14.9 12.1 78.8- 0.0 0.3---- 12.2------------
1987-07-22 20.3 26.2 14.4 16.1 83.5- 3.7 1.3---- 0.0------------
1987-07-21 21.0 26.0 14.6 12.6 84.5- 3.3 1.0---- 0.0------------
1987-07-20 20.5 24.2 18.2 16.8 86.0- 5.0 2.0---- 0.0------------
1987-07-19 22.8 28.2 18.6 16.6 86.8- 3.7 1.0---- 0.8------------
1987-07-18 24.9 29.2 18.9 14.9 64.8- 0.3 0.3---- 0.0------------
1987-07-17 23.2 30.5 16.9 14.6 75.0- 5.3 0.3---- 0.0------------
1987-07-16 19.5 26.2 12.5 10.1 81.8- 1.3 0.7---- 0.9------------
1987-07-15 16.5 22.7 8.6 6.5 78.3- 0.0 1.7---- 0.0------------
1987-07-14 17.3 20.8 13.7 17.1 66.0- 0.7 0.7---- 0.0------------
1987-07-13 19.5 25.2 16.2 13.9 78.0- 2.7 1.3---- 0.0------------
1987-07-12 23.3 29.7 17.2 13.2 58.5- 2.3 3.3---- 6.0------------
1987-07-11 17.3 24.1 10.9 7.6 73.0- 0.0 1.0---- 0.0------------
1987-07-10 15.1 19.0 12.0 9.5 77.5- 2.7 1.7---- 0.0------------
1987-07-09 17.9 25.1 14.9 14.2 83.0- 6.7 1.0---- 6.3------------
1987-07-08 22.8 28.2 15.5 12.1 53.3- 0.3 0.3---- 0.0------------
1987-07-07 18.8 25.1 11.2 9.4 56.3- 0.0 0.7---- 0.0------------
1987-07-06 17.1 21.7 11.4 9.6 71.8- 0.0 0.7---- 0.0------------
1987-07-05 16.3 19.2 14.4 13.5 76.0- 4.0 1.0---- 3.6------------
1987-07-04 18.9 23.0 16.2 12.6 75.8- 5.0 1.0---- 0.0------------
1987-07-03 18.7 21.7 15.8 15.1 79.0- 6.3 1.0---- 0.0------------
1987-07-02 19.5 27.6 16.4 16.2 91.5- 6.7 1.7---- 0.3------------
1987-07-01 25.0 30.2 20.0 18.5 74.0- 1.3 0.7---- 0.0------------
1987-06-30 23.0 28.4 16.7 15.7 73.8- 0.0 0.0---- 0.0------------
1987-06-29 21.7 25.3 18.0 15.6 81.8- 1.0 1.0---- 0.0------------
1987-06-28 19.8 24.4 16.0 14.1 74.8- 3.7 2.3---- 0.0------------
1987-06-27 18.7 21.4 16.2 14.0 83.5- 5.3 2.3---- 0.0------------
1987-06-26 17.7 24.0 10.1 6.1 66.8- 4.0 1.7---- 7.2------------
1987-06-25 14.7 18.5 13.4 11.1 81.5- 6.0 1.7---- 0.0------------
1987-06-24 16.5 20.5 12.9 10.6 75.3- 4.3 2.3---- 3.6------------
1987-06-23 16.1 20.2 13.4 13.1 78.8- 5.7 1.3---- 0.0------------
1987-06-22 15.4 21.6 13.9 13.1 89.8- 5.0 3.3---- 0.4------------
1987-06-21 16.7 23.0 11.8 9.6 71.8- 3.0 1.3---- 0.0------------
1987-06-20 15.1 21.3 8.4 8.1 69.5- 3.0 1.7---- 0.0------------
1987-06-19 13.1 16.5 8.9 6.1 66.3- 1.3 1.7---- 0.0------------
1987-06-18 10.7 15.5 6.9 4.7 79.5- 5.7 3.3---- 1.1------------
1987-06-17 11.0 14.3 9.4 7.1 81.3- 3.7 2.7---- 0.5------------
1987-06-16 14.8 25.0 11.0 11.1 79.5- 6.0 1.7---- 7.2------------
536.7 ms

 

Źródłem pochodzenia danych jest Instytut Meteorologii i Gospodarki Wodnej – Państwowy Instytut Badawczy. Dane Instytutu Meteorologii i Gospodarki Wodnej – Państwowego Instytutu Badawczego zostały przetworzone.

Dane źródłowe można odnaleźć na stronie https://dane.imgw.pl